Time;durP1;ratioP1;P1;durP2;ratioP2;P2;SDS_P1;SDS_P2;PMS_P1;PMS_P2;Temp;Humidity;BMP_temperature;BMP_pressure;BME280_temperature;BME280_humidity;BME280_pressure;Samples;Min_cycle;Max_cycle;Signal;HPM_P1;HPM_P2
2023/02/13 00:00:32;;;;;;;16.83;10.13;;;1.80;99.90;;;;;;6209874;23;20418;-73
2023/02/13 00:02:59;;;;;;;18.53;10.87;;;1.80;99.90;;;;;;6209549;23;20407;-76
2023/02/13 00:05:26;;;;;;;18.67;10.40;;;1.80;99.90;;;;;;6209986;23;20781;-76
2023/02/13 00:07:52;;;;;;;21.10;11.17;;;1.80;99.90;;;;;;6209639;23;20474;-77
2023/02/13 00:10:19;;;;;;;25.90;12.60;;;1.80;99.90;;;;;;6209664;23;20912;-75
2023/02/13 00:12:46;;;;;;;29.90;11.50;;;1.80;99.90;;;;;;6210051;23;20446;-75
2023/02/13 00:15:14;;;;;;;21.37;11.00;;;1.90;99.90;;;;;;6209486;23;20407;-75
2023/02/13 00:17:41;;;;;;;25.17;11.83;;;1.90;99.90;;;;;;6209460;23;21163;-73
2023/02/13 00:20:10;;;;;;;23.47;11.93;;;1.90;99.90;;;;;;6209812;23;20900;-74
2023/02/13 00:22:37;;;;;;;23.47;12.77;;;1.90;99.90;;;;;;6209933;23;20410;-74
2023/02/13 00:25:04;;;;;;;26.57;10.90;;;1.90;99.90;;;;;;6209586;23;20730;-77
2023/02/13 00:27:31;;;;;;;26.40;13.73;;;1.90;99.90;;;;;;6209999;23;20442;-74
2023/02/13 00:29:58;;;;;;;26.43;12.13;;;1.90;99.90;;;;;;6209720;23;20501;-75
2023/02/13 00:32:26;;;;;;;24.43;11.73;;;2.00;99.90;;;;;;6208945;23;21010;-78
2023/02/13 00:34:53;;;;;;;23.90;12.23;;;2.10;99.90;;;;;;6209744;23;20751;-74
2023/02/13 00:37:20;;;;;;;33.03;12.20;;;2.00;99.90;;;;;;6209532;23;20421;-78
2023/02/13 00:39:46;;;;;;;28.67;14.53;;;2.00;99.90;;;;;;6209553;23;20877;-76
2023/02/13 00:42:13;;;;;;;27.93;13.53;;;2.00;99.90;;;;;;6209440;23;20399;-76
2023/02/13 00:44:40;;;;;;;24.97;13.03;;;2.00;99.90;;;;;;6209895;23;20408;-75
2023/02/13 00:47:07;;;;;;;38.67;15.00;;;2.00;99.90;;;;;;6209687;23;20422;-78
2023/02/13 00:49:35;;;;;;;25.10;12.63;;;2.00;99.90;;;;;;6209568;23;20415;-75
2023/02/13 00:52:02;;;;;;;28.43;13.03;;;2.00;99.90;;;;;;6209863;23;20431;-74
2023/02/13 00:54:28;;;;;;;28.40;13.30;;;2.00;99.90;;;;;;6209113;23;20417;-77
2023/02/13 00:56:55;;;;;;;26.73;13.70;;;2.00;99.90;;;;;;6209691;23;20407;-73
2023/02/13 00:59:22;;;;;;;29.00;13.23;;;2.10;99.90;;;;;;6209509;23;20442;-75
2023/02/13 01:01:49;;;;;;;27.97;13.47;;;2.10;99.90;;;;;;6209266;23;20415;-74
2023/02/13 01:04:15;;;;;;;33.17;12.77;;;2.10;99.90;;;;;;6209082;23;20443;-75
2023/02/13 01:06:44;;;;;;;29.53;14.90;;;2.20;99.90;;;;;;6209676;23;20411;-76
2023/02/13 01:09:11;;;;;;;27.43;12.77;;;2.10;99.90;;;;;;6209424;23;20407;-75
2023/02/13 01:11:37;;;;;;;35.37;14.30;;;2.10;99.90;;;;;;6210120;23;20421;-75
2023/02/13 01:14:04;;;;;;;38.63;14.43;;;2.10;99.90;;;;;;6209327;23;20442;-75
2023/02/13 01:16:31;;;;;;;34.70;15.70;;;2.10;99.90;;;;;;6209208;23;20398;-75
2023/02/13 01:18:58;;;;;;;25.80;11.87;;;2.10;99.90;;;;;;6209313;23;20419;-75
2023/02/13 01:21:25;;;;;;;29.67;14.33;;;2.10;99.90;;;;;;6209128;23;20407;-75
2023/02/13 01:23:53;;;;;;;34.63;16.77;;;2.10;99.90;;;;;;6211535;23;20418;-77
2023/02/13 01:26:21;;;;;;;28.27;15.67;;;2.10;99.90;;;;;;6211652;23;20398;-76
2023/02/13 01:28:48;;;;;;;38.67;16.17;;;2.10;99.90;;;;;;6212251;23;20460;-77
2023/02/13 01:31:15;;;;;;;36.60;14.90;;;2.00;99.90;;;;;;6211247;23;20415;-75
2023/02/13 01:33:42;;;;;;;32.87;14.07;;;2.00;99.90;;;;;;6211398;23;20447;-75
2023/02/13 01:36:10;;;;;;;32.43;16.53;;;1.90;99.90;;;;;;6215047;23;20407;-79
2023/02/13 01:38:37;;;;;;;34.27;15.67;;;2.00;99.90;;;;;;6173649;23;20464;-85
2023/02/13 01:41:06;;;;;;;26.87;14.43;;;1.90;99.90;;;;;;6151908;23;20412;-86
2023/02/13 01:43:51;;;;;;;35.83;17.10;;;1.90;99.90;;;;;;6152122;23;20412;-81
2023/02/13 01:46:23;;;;;;;26.90;13.30;;;2.00;99.90;;;;;;6152517;23;21007;-82
2023/02/13 01:48:53;;;;;;;26.53;15.30;;;2.00;99.90;;;;;;6152804;23;20400;-81
2023/02/13 01:51:25;;;;;;;24.50;13.93;;;2.20;99.90;;;;;;6152271;23;20412;-82
2023/02/13 01:53:54;;;;;;;26.03;13.10;;;2.10;99.90;;;;;;6151652;23;20463;-80
2023/02/13 01:56:27;;;;;;;27.50;14.13;;;2.00;99.90;;;;;;6156696;23;20418;-83
2023/02/13 01:58:58;;;;;;;27.97;13.83;;;2.00;99.90;;;;;;6161182;23;20397;-82
2023/02/13 02:01:27;;;;;;;23.63;12.50;;;2.10;99.90;;;;;;6153082;23;20460;-79
2023/02/13 02:03:58;;;;;;;31.60;12.93;;;2.00;99.90;;;;;;6151832;23;20981;-78
2023/02/13 02:06:28;;;;;;;22.73;12.40;;;2.10;99.90;;;;;;6152402;23;20401;-80
2023/02/13 02:08:57;;;;;;;30.03;13.83;;;2.20;99.90;;;;;;6151656;23;20431;-82
2023/02/13 02:11:32;;;;;;;22.10;12.83;;;2.00;99.90;;;;;;6152040;23;20405;-84
2023/02/13 02:14:01;;;;;;;21.63;13.30;;;2.00;99.90;;;;;;6151703;23;20921;-80
2023/02/13 02:16:28;;;;;;;26.00;11.97;;;1.90;99.90;;;;;;6151520;23;20404;-79
2023/02/13 02:18:55;;;;;;;25.37;13.70;;;1.80;99.90;;;;;;6151840;23;20412;-85
2023/02/13 02:22:01;;;;;;;28.80;13.77;;;1.90;99.90;;;;;;6151898;23;20408;-83
2023/02/13 02:25:07;;;;;;;28.90;13.53;;;1.80;99.90;;;;;;6150827;23;20404;-83
2023/02/13 02:28:13;;;;;;;20.07;11.17;;;1.90;99.90;;;;;;6152188;23;20408;-81
2023/02/13 02:31:21;;;;;;;25.57;12.90;;;1.90;99.90;;;;;;6152056;23;20390;-82
2023/02/13 02:33:59;;;;;;;25.80;13.07;;;1.90;99.90;;;;;;6151515;23;20458;-85
2023/02/13 02:36:39;;;;;;;23.80;12.87;;;1.90;99.90;;;;;;6151310;23;20491;-85
2023/02/13 02:39:16;;;;;;;20.70;11.13;;;2.00;99.90;;;;;;6151143;23;20446;-79
2023/02/13 02:41:54;;;;;;;25.00;12.63;;;2.00;99.90;;;;;;6151469;23;20404;-79
2023/02/13 02:44:41;;;;;;;26.53;13.30;;;1.90;99.90;;;;;;6151063;23;21121;-79
2023/02/13 02:50:19;;;;;;;19.13;11.50;;;2.00;99.90;;;;;;6150917;23;20513;-77
2023/02/13 02:52:59;;;;;;;27.37;11.87;;;1.90;99.90;;;;;;6150939;23;20421;-76
2023/02/13 02:55:37;;;;;;;20.27;10.90;;;1.90;99.90;;;;;;6151074;23;20399;-78
2023/02/13 03:06:44;;;;;;;25.73;13.03;;;2.00;99.90;;;;;;6094142;23;20485;-78
2023/02/13 03:14:44;;;;;;;22.30;11.37;;;2.00;99.90;;;;;;6150786;23;21024;-81
2023/02/13 03:23:13;;;;;;;21.73;10.80;;;1.90;99.90;;;;;;6150906;23;20441;-77
2023/02/13 03:26:03;;;;;;;19.57;9.87;;;1.80;99.90;;;;;;6150341;23;20506;-77
2023/02/13 03:31:26;;;;;;;13.77;8.93;;;1.80;99.90;;;;;;6150567;23;20412;-78
2023/02/13 03:33:59;;;;;;;17.47;10.10;;;1.70;99.90;;;;;;6149791;23;21000;-77
2023/02/13 03:39:25;;;;;;;17.80;10.73;;;1.70;99.90;;;;;;6150109;23;20491;-77
2023/02/13 03:41:58;;;;;;;19.43;11.20;;;1.70;99.90;;;;;;6150699;23;20397;-78
2023/02/13 03:44:31;;;;;;;16.73;10.03;;;1.80;99.90;;;;;;6150331;23;20396;-78
2023/02/13 03:47:01;;;;;;;20.00;10.13;;;1.70;99.90;;;;;;6150944;23;20404;-77
2023/02/13 03:52:22;;;;;;;16.03;10.60;;;1.70;99.90;;;;;;6152402;23;20460;-84
2023/02/13 04:00:32;;;;;;;22.03;11.00;;;1.80;99.90;;;;;;6152662;23;20389;-80
2023/02/13 04:03:09;;;;;;;20.17;10.33;;;1.80;99.90;;;;;;6152238;23;20723;-82
2023/02/13 04:05:41;;;;;;;19.27;10.67;;;1.80;99.90;;;;;;6152068;23;20447;-83
2023/02/13 04:08:07;;;;;;;25.83;11.83;;;1.80;99.90;;;;;;6151603;23;20404;-83
2023/02/13 04:10:41;;;;;;;30.10;11.47;;;1.80;99.90;;;;;;6151393;23;20401;-81
2023/02/13 04:13:14;;;;;;;24.43;12.70;;;1.90;99.90;;;;;;6153063;23;20397;-76
2023/02/13 04:15:45;;;;;;;19.00;11.40;;;1.80;99.90;;;;;;6153945;23;20390;-76
2023/02/13 04:18:15;;;;;;;20.57;12.03;;;1.80;99.90;;;;;;6152082;23;20415;-77
2023/02/13 04:20:42;;;;;;;20.73;10.87;;;1.70;99.90;;;;;;6152537;23;20389;-76
2023/02/13 04:23:12;;;;;;;17.17;10.70;;;1.40;99.90;;;;;;6155920;23;20507;-79
2023/02/13 04:25:44;;;;;;;20.23;10.43;;;1.30;99.90;;;;;;6155838;23;20396;-76
2023/02/13 04:28:11;;;;;;;19.23;9.93;;;1.30;99.90;;;;;;6153747;23;20408;-76
2023/02/13 04:30:38;;;;;;;18.00;8.70;;;1.40;99.90;;;;;;6153575;23;20492;-76
2023/02/13 04:33:05;;;;;;;16.90;10.20;;;1.40;99.90;;;;;;6154435;23;20421;-83
2023/02/13 04:35:31;;;;;;;22.90;11.03;;;1.40;99.90;;;;;;6152582;23;20484;-78
2023/02/13 04:37:58;;;;;;;17.97;10.57;;;1.50;99.90;;;;;;6151094;23;20440;-77
2023/02/13 04:40:25;;;;;;;21.13;12.13;;;1.60;99.90;;;;;;6151912;23;20419;-83
2023/02/13 04:42:53;;;;;;;18.43;10.93;;;1.30;99.90;;;;;;6151320;23;20426;-78
2023/02/13 04:45:20;;;;;;;23.20;13.00;;;1.40;99.90;;;;;;6150658;23;20411;-76
2023/02/13 04:47:51;;;;;;;20.20;12.50;;;1.10;99.90;;;;;;6149960;23;20406;-76
2023/02/13 04:50:18;;;;;;;22.40;10.80;;;1.20;99.90;;;;;;6148120;23;20878;-75
2023/02/13 04:52:45;;;;;;;21.67;12.20;;;1.30;99.90;;;;;;6149260;23;20451;-80
2023/02/13 04:55:12;;;;;;;17.23;9.83;;;1.40;99.90;;;;;;6152518;23;20459;-79
2023/02/13 04:57:39;;;;;;;19.83;11.67;;;1.40;99.90;;;;;;6158475;23;20499;-84
2023/02/13 05:00:09;;;;;;;24.93;12.07;;;1.40;99.90;;;;;;6150473;23;20421;-77
2023/02/13 05:02:36;;;;;;;20.67;12.20;;;1.10;99.90;;;;;;6150525;23;20416;-78
2023/02/13 05:05:03;;;;;;;27.00;12.77;;;0.90;99.90;;;;;;6149846;23;20921;-77
2023/02/13 05:07:29;;;;;;;21.87;11.30;;;1.10;99.90;;;;;;6149443;23;20416;-77
2023/02/13 05:09:56;;;;;;;19.93;12.10;;;1.20;99.90;;;;;;6149920;23;20415;-77
2023/02/13 05:12:23;;;;;;;25.67;14.13;;;1.20;99.90;;;;;;6149392;23;20405;-79
2023/02/13 05:14:50;;;;;;;23.17;13.03;;;1.30;99.90;;;;;;6150087;23;20543;-79
2023/02/13 05:17:18;;;;;;;21.70;13.40;;;1.30;99.90;;;;;;6150335;23;20733;-83
2023/02/13 05:19:45;;;;;;;26.30;11.13;;;1.40;99.90;;;;;;6149861;23;20416;-80
2023/02/13 05:24:56;;;;;;;20.53;11.50;;;1.30;99.90;;;;;;6149902;23;20376;-78
2023/02/13 05:27:23;;;;;;;27.93;14.03;;;1.30;99.90;;;;;;6149641;23;20438;-77
2023/02/13 05:29:49;;;;;;;22.47;11.97;;;1.20;99.90;;;;;;6148749;23;20531;-77
2023/02/13 05:32:18;;;;;;;26.57;12.33;;;1.10;99.90;;;;;;6148066;23;20809;-86
2023/02/13 05:34:44;;;;;;;28.90;13.07;;;1.20;99.90;;;;;;6148656;23;20535;-77
2023/02/13 05:37:11;;;;;;;20.73;11.93;;;1.30;99.90;;;;;;6149297;23;20413;-77
2023/02/13 05:39:38;;;;;;;21.50;12.10;;;1.30;99.90;;;;;;6150246;23;20721;-76
2023/02/13 05:42:05;;;;;;;26.50;13.97;;;1.50;99.90;;;;;;6149221;23;20424;-79
2023/02/13 05:44:32;;;;;;;16.77;11.70;;;1.20;99.90;;;;;;6149023;23;20418;-76
2023/02/13 05:46:59;;;;;;;25.37;13.57;;;1.00;99.90;;;;;;6150153;23;20424;-79
2023/02/13 05:49:27;;;;;;;25.63;14.97;;;1.00;99.90;;;;;;6149695;23;20423;-80
2023/02/13 05:51:54;;;;;;;32.17;15.20;;;1.10;99.90;;;;;;6154956;23;20432;-88
2023/02/13 05:54:21;;;;;;;26.03;13.93;;;0.90;99.90;;;;;;6154162;23;20446;-91
2023/02/13 05:56:48;;;;;;;29.63;16.40;;;0.90;99.90;;;;;;6151598;23;20751;-86
2023/02/13 05:59:15;;;;;;;35.80;17.37;;;0.70;99.90;;;;;;6158883;23;20545;-89
2023/02/13 06:01:42;;;;;;;26.77;15.13;;;0.70;99.90;;;;;;6171573;23;20420;-84
2023/02/13 06:04:08;;;;;;;32.53;17.37;;;0.80;99.90;;;;;;6158790;23;20516;-83
2023/02/13 06:06:37;;;;;;;28.10;14.63;;;0.60;99.90;;;;;;6172613;23;20403;-81
2023/02/13 06:09:04;;;;;;;31.87;16.57;;;0.50;99.90;;;;;;6172565;23;20487;-89
2023/02/13 06:11:31;;;;;;;31.53;16.50;;;0.60;99.90;;;;;;6163527;23;20440;-89
2023/02/13 06:13:57;;;;;;;30.00;17.73;;;0.50;99.90;;;;;;6162769;23;20529;-79
2023/02/13 06:16:24;;;;;;;29.43;16.60;;;0.60;99.90;;;;;;6153653;23;21035;-88
2023/02/13 06:18:51;;;;;;;27.60;15.33;;;0.60;99.90;;;;;;6170358;23;20488;-85
2023/02/13 06:21:18;;;;;;;36.30;18.73;;;0.50;99.90;;;;;;6172724;23;20490;-86
2023/02/13 06:23:46;;;;;;;45.50;21.00;;;0.50;99.90;;;;;;6157587;23;20412;-79
2023/02/13 06:26:13;;;;;;;32.70;17.60;;;0.50;99.90;;;;;;6154003;23;20491;-89
2023/02/13 06:28:40;;;;;;;40.57;18.87;;;0.80;99.90;;;;;;6155304;23;20902;-78
2023/02/13 06:31:06;;;;;;;38.00;19.70;;;0.50;99.90;;;;;;6161085;23;20505;-91
2023/02/13 06:33:33;;;;;;;47.87;20.90;;;0.50;99.90;;;;;;6155508;23;20652;-79
2023/02/13 06:36:00;;;;;;;42.13;21.60;;;1.20;99.90;;;;;;6152622;23;20421;-80
2023/02/13 06:38:27;;;;;;;42.43;18.20;;;1.30;99.90;;;;;;6152021;23;20520;-81
2023/02/13 06:40:59;;;;;;;40.80;18.87;;;1.20;99.90;;;;;;6151069;23;20730;-86
2023/02/13 06:43:26;;;;;;;36.83;17.63;;;1.00;99.90;;;;;;6151621;23;20406;-79
2023/02/13 06:45:53;;;;;;;33.87;16.97;;;1.10;99.90;;;;;;6150469;23;20408;-80
2023/02/13 06:48:20;;;;;;;27.30;14.30;;;0.70;99.90;;;;;;6151236;23;20415;-72
2023/02/13 06:50:47;;;;;;;35.43;18.87;;;0.70;99.90;;;;;;6149942;23;20417;-70
2023/02/13 06:53:14;;;;;;;44.80;20.77;;;0.70;99.90;;;;;;6150434;23;20962;-70
2023/02/13 06:55:40;;;;;;;45.13;17.70;;;0.60;99.90;;;;;;6150916;23;20443;-78
2023/02/13 06:58:09;;;;;;;38.17;18.60;;;0.50;99.90;;;;;;6151885;23;20420;-80
2023/02/13 07:00:36;;;;;;;38.97;21.50;;;0.70;99.90;;;;;;6150984;23;20496;-76
2023/02/13 07:03:05;;;;;;;41.40;20.40;;;0.70;99.90;;;;;;6151575;23;20516;-76
2023/02/13 07:05:31;;;;;;;40.77;19.90;;;0.50;99.90;;;;;;6150801;23;20443;-78
2023/02/13 07:07:59;;;;;;;38.80;18.60;;;0.50;99.90;;;;;;6151909;23;20419;-78
2023/02/13 07:10:25;;;;;;;45.50;20.80;;;0.40;99.90;;;;;;6151779;23;20696;-77
2023/02/13 07:12:52;;;;;;;38.33;20.23;;;0.40;99.90;;;;;;6151756;23;20400;-78
2023/02/13 07:15:21;;;;;;;42.37;19.43;;;0.50;99.90;;;;;;6151844;23;20440;-78
2023/02/13 07:17:47;;;;;;;41.13;21.57;;;0.50;99.90;;;;;;6151297;23;20617;-78
2023/02/13 07:20:14;;;;;;;42.30;20.60;;;0.40;99.90;;;;;;6150916;23;20756;-78
2023/02/13 07:22:41;;;;;;;35.80;17.00;;;0.40;99.90;;;;;;6151467;23;20399;-76
2023/02/13 07:25:08;;;;;;;50.03;23.50;;;0.40;99.90;;;;;;6150777;23;20403;-77
2023/02/13 07:27:35;;;;;;;44.60;22.80;;;0.30;99.90;;;;;;6150977;23;20414;-77
2023/02/13 07:30:02;;;;;;;48.33;23.07;;;1.00;99.90;;;;;;6151091;23;20421;-76
2023/02/13 07:32:30;;;;;;;43.00;23.93;;;0.40;99.90;;;;;;6150786;23;20403;-78
2023/02/13 07:34:57;;;;;;;41.07;21.87;;;0.40;99.90;;;;;;6150251;23;20440;-77
2023/02/13 07:37:24;;;;;;;54.20;25.13;;;0.40;99.90;;;;;;6149841;23;20444;-78
2023/02/13 07:39:50;;;;;;;58.13;21.20;;;0.50;99.90;;;;;;6152268;23;20385;-88
2023/02/13 07:42:17;;;;;;;44.60;20.00;;;0.50;99.90;;;;;;6160981;23;20444;-76
2023/02/13 07:44:44;;;;;;;37.13;17.07;;;0.60;99.90;;;;;;6171526;23;20404;-91
2023/02/13 07:47:11;;;;;;;57.00;22.90;;;0.60;99.90;;;;;;6181770;23;20518;-89
2023/02/13 07:49:39;;;;;;;45.40;22.13;;;0.60;99.90;;;;;;6179891;23;20423;-89
2023/02/13 07:52:07;;;;;;;44.80;18.10;;;1.00;99.90;;;;;;6181453;23;20417;-85
2023/02/13 07:54:34;;;;;;;50.70;22.33;;;0.80;99.90;;;;;;6184476;23;20455;-80
2023/02/13 07:57:01;;;;;;;37.60;18.70;;;0.60;99.90;;;;;;6183827;23;20439;-84
2023/02/13 07:59:27;;;;;;;40.60;19.77;;;0.60;99.90;;;;;;6180151;23;20415;-82
2023/02/13 08:01:54;;;;;;;44.33;21.13;;;0.50;99.90;;;;;;6177938;23;20448;-82
2023/02/13 08:04:21;;;;;;;49.57;22.57;;;0.60;99.90;;;;;;6182525;23;20472;-87
2023/02/13 08:12:10;;;;;;;38.90;19.63;;;0.70;99.90;;;;;;6157241;23;20949;-82
2023/02/13 08:14:37;;;;;;;50.70;24.07;;;1.00;99.90;;;;;;6154046;23;20459;-81
2023/02/13 08:17:04;;;;;;;38.10;20.40;;;0.80;99.90;;;;;;6152146;23;20408;-83
2023/02/13 08:19:31;;;;;;;44.73;18.70;;;1.00;99.90;;;;;;6166146;23;20855;-80
2023/02/13 08:21:58;;;;;;;45.63;22.23;;;1.00;99.90;;;;;;6155097;23;20423;-84
2023/02/13 08:24:26;;;;;;;37.03;17.90;;;0.90;99.90;;;;;;6161424;23;20434;-80
2023/02/13 08:26:53;;;;;;;40.53;21.37;;;1.00;99.90;;;;;;6154944;23;20476;-88
2023/02/13 08:29:20;;;;;;;38.70;19.83;;;1.00;99.90;;;;;;6167381;23;20411;-83
2023/02/13 08:31:47;;;;;;;39.60;17.73;;;1.00;99.90;;;;;;6157942;23;20420;-89
2023/02/13 08:34:13;;;;;;;45.93;19.63;;;1.40;99.90;;;;;;6154340;23;20488;-85
2023/02/13 08:36:40;;;;;;;43.90;22.60;;;1.70;99.90;;;;;;6151392;23;20530;-83
2023/02/13 08:39:08;;;;;;;41.80;19.70;;;1.40;99.90;;;;;;6155963;23;20499;-81
2023/02/13 08:41:37;;;;;;;35.50;18.47;;;1.30;99.90;;;;;;6152909;23;20434;-86
2023/02/13 08:44:03;;;;;;;40.03;20.23;;;1.70;99.90;;;;;;6151759;23;20507;-87
2023/02/13 08:46:30;;;;;;;35.10;18.80;;;1.60;99.90;;;;;;6153369;23;20431;-92
2023/02/13 08:48:57;;;;;;;42.67;20.10;;;1.50;99.90;;;;;;6151124;23;20412;-88
2023/02/13 08:51:24;;;;;;;31.90;17.30;;;1.70;99.90;;;;;;6150710;23;20421;-85
2023/02/13 08:53:51;;;;;;;32.57;17.73;;;2.00;99.90;;;;;;6150751;23;20954;-90
2023/02/13 08:56:17;;;;;;;30.47;16.17;;;2.20;99.90;;;;;;6150562;23;20445;-89
2023/02/13 08:58:49;;;;;;;33.90;17.60;;;2.30;99.90;;;;;;6152222;23;20416;-91
2023/02/13 09:01:16;;;;;;;27.93;17.63;;;1.80;99.90;;;;;;6151122;23;20677;-77
2023/02/13 09:03:43;;;;;;;33.33;15.77;;;1.60;99.90;;;;;;6149901;23;20945;-82
2023/02/13 09:06:10;;;;;;;25.90;15.67;;;2.00;99.90;;;;;;6151372;23;20499;-91
2023/02/13 09:08:37;;;;;;;30.50;17.23;;;2.10;99.90;;;;;;6150258;23;20984;-85
2023/02/13 09:11:06;;;;;;;27.80;15.10;;;2.30;99.90;;;;;;6150760;23;20412;-86
2023/02/13 09:13:34;;;;;;;32.47;15.90;;;2.50;99.90;;;;;;6150098;23;20970;-86
2023/02/13 09:16:04;;;;;;;29.97;16.60;;;2.00;99.90;;;;;;6151049;23;20955;-87
2023/02/13 09:18:31;;;;;;;29.90;16.20;;;1.70;99.90;;;;;;6150526;23;20758;-89
2023/02/13 09:21:00;;;;;;;29.80;16.83;;;1.50;99.90;;;;;;6150889;23;20992;-84
2023/02/13 09:23:27;;;;;;;32.20;16.33;;;1.80;99.90;;;;;;6153184;23;20413;-92
2023/02/13 09:25:54;;;;;;;26.27;15.47;;;1.50;99.90;;;;;;6154006;23;20439;-86
2023/02/13 09:28:21;;;;;;;27.33;16.33;;;1.60;99.90;;;;;;6149235;23;20473;-88
2023/02/13 09:30:48;;;;;;;32.63;15.60;;;1.90;99.90;;;;;;6150492;23;20472;-87
2023/02/13 09:33:16;;;;;;;28.40;14.93;;;2.20;99.90;;;;;;6150430;23;20429;-89
2023/02/13 09:35:43;;;;;;;28.70;16.73;;;2.30;99.90;;;;;;6150165;23;20449;-85
2023/02/13 09:38:11;;;;;;;38.33;17.17;;;2.00;99.90;;;;;;6149874;23;20467;-87
2023/02/13 09:40:43;;;;;;;32.50;16.10;;;2.00;99.90;;;;;;6150616;23;20412;-86
2023/02/13 09:43:16;;;;;;;28.30;16.47;;;1.80;99.90;;;;;;6150154;23;20442;-86
2023/02/13 09:45:46;;;;;;;30.83;16.60;;;2.00;99.90;;;;;;6152152;23;20403;-85
2023/02/13 09:48:24;;;;;;;30.20;15.30;;;2.10;99.90;;;;;;6151034;23;20401;-82
2023/02/13 09:50:51;;;;;;;31.70;16.27;;;2.40;99.90;;;;;;6151107;23;20384;-83
2023/02/13 09:53:23;;;;;;;28.70;16.20;;;2.60;99.90;;;;;;6151174;23;20437;-83
2023/02/13 09:56:00;;;;;;;25.37;14.90;;;4.30;99.90;;;;;;6152467;23;20433;-84
2023/02/13 09:58:43;;;;;;;28.27;14.90;;;2.80;99.90;;;;;;6154272;23;20427;-82
2023/02/13 10:01:21;;;;;;;27.43;15.67;;;3.10;99.90;;;;;;6153248;23;20878;-85
2023/02/13 10:04:12;;;;;;;21.50;12.80;;;3.20;99.90;;;;;;6152499;23;20404;-81
2023/02/13 10:06:48;;;;;;;27.93;13.97;;;3.30;99.90;;;;;;6153982;23;20422;-82
2023/02/13 10:09:26;;;;;;;25.27;14.87;;;3.50;99.90;;;;;;6153485;23;20435;-84
2023/02/13 10:12:19;;;;;;;25.30;15.60;;;3.30;99.90;;;;;;6154921;23;20755;-82
2023/02/13 10:14:54;;;;;;;24.77;14.80;;;2.90;99.90;;;;;;6153221;23;20565;-82
2023/02/13 10:17:26;;;;;;;26.27;14.97;;;3.00;99.90;;;;;;6154657;23;20393;-81
2023/02/13 10:20:00;;;;;;;24.60;13.70;;;3.20;99.90;;;;;;6157804;23;21036;-82
2023/02/13 10:22:33;;;;;;;27.00;15.00;;;3.30;99.90;;;;;;6159092;23;20929;-87
2023/02/13 10:25:04;;;;;;;26.50;15.00;;;3.40;99.90;;;;;;6154823;23;20449;-83
2023/02/13 10:27:35;;;;;;;22.80;13.30;;;3.10;99.90;;;;;;6153858;23;20427;-85
2023/02/13 10:30:05;;;;;;;25.87;14.80;;;2.70;99.90;;;;;;6152035;23;20945;-78
2023/02/13 10:32:42;;;;;;;27.77;15.50;;;2.10;99.90;;;;;;6151854;23;20455;-83
2023/02/13 10:35:19;;;;;;;25.70;14.77;;;1.70;99.90;;;;;;6151220;23;20451;-83
2023/02/13 10:37:50;;;;;;;32.03;15.20;;;2.20;99.90;;;;;;6152735;23;20472;-91
2023/02/13 10:40:17;;;;;;;29.33;16.37;;;2.70;99.90;;;;;;6153998;23;20400;-88
2023/02/13 10:42:46;;;;;;;30.17;15.87;;;3.10;99.90;;;;;;6152649;23;20420;-86
2023/02/13 10:45:32;;;;;;;36.57;20.00;;;2.40;99.90;;;;;;6153879;23;20481;-88
2023/02/13 10:48:14;;;;;;;29.43;14.60;;;2.10;99.90;;;;;;6154514;23;20393;-81
2023/02/13 10:50:49;;;;;;;35.60;17.70;;;1.90;99.90;;;;;;6151735;23;20393;-81
2023/02/13 10:53:21;;;;;;;25.97;14.57;;;2.20;99.90;;;;;;6150258;23;20436;-82
2023/02/13 10:56:04;;;;;;;29.87;13.90;;;2.30;99.90;;;;;;6151639;23;20433;-80
2023/02/13 10:58:44;;;;;;;31.20;17.37;;;2.30;99.90;;;;;;6153343;23;20444;-81
2023/02/13 11:01:18;;;;;;;31.80;16.20;;;2.00;99.90;;;;;;6158516;23;20396;-81
2023/02/13 11:03:46;;;;;;;31.40;14.97;;;2.10;99.90;;;;;;6153011;23;20407;-83
2023/02/13 11:06:17;;;;;;;30.70;14.83;;;2.50;99.90;;;;;;6155472;23;20405;-83
2023/02/13 11:08:47;;;;;;;36.00;18.00;;;2.30;99.90;;;;;;6153991;23;20451;-80
2023/02/13 11:11:30;;;;;;;31.50;15.47;;;2.20;99.90;;;;;;6153473;23;20743;-80
2023/02/13 11:14:13;;;;;;;29.60;15.87;;;2.00;99.90;;;;;;6154368;23;20962;-85
2023/02/13 11:16:50;;;;;;;32.57;16.93;;;2.30;99.90;;;;;;6154284;23;20437;-88
2023/02/13 11:19:24;;;;;;;31.77;17.60;;;2.30;99.90;;;;;;6154305;23;20518;-87
2023/02/13 11:21:57;;;;;;;27.27;16.27;;;2.50;99.90;;;;;;6154119;23;20482;-85
2023/02/13 11:24:26;;;;;;;35.17;16.33;;;2.70;99.90;;;;;;6154605;23;20500;-85
2023/02/13 11:26:57;;;;;;;30.80;15.93;;;2.60;99.90;;;;;;6152150;23;20404;-81
2023/02/13 11:29:26;;;;;;;28.70;16.20;;;2.60;99.90;;;;;;6151147;23;20737;-83
2023/02/13 11:32:21;;;;;;;28.13;16.40;;;2.60;99.90;;;;;;6151915;23;20417;-85
2023/02/13 11:34:50;;;;;;;28.10;17.70;;;2.70;99.90;;;;;;6152164;23;20449;-81
2023/02/13 11:37:21;;;;;;;35.03;17.87;;;2.40;99.90;;;;;;6151866;23;20675;-82
2023/02/13 11:39:50;;;;;;;34.63;17.60;;;2.30;99.90;;;;;;6151716;23;20397;-81
2023/02/13 11:42:21;;;;;;;34.20;18.10;;;2.30;99.90;;;;;;6153035;23;20416;-92
2023/02/13 11:44:52;;;;;;;37.70;19.20;;;2.50;99.90;;;;;;6154026;23;20389;-91
2023/02/13 11:47:33;;;;;;;34.77;16.77;;;2.80;99.90;;;;;;6152829;23;20423;-88
2023/02/13 11:50:00;;;;;;;28.83;17.07;;;3.00;99.90;;;;;;6152777;23;20403;-90
2023/02/13 11:52:32;;;;;;;37.17;19.97;;;2.80;99.90;;;;;;6152860;23;20768;-88
2023/02/13 11:55:00;;;;;;;37.17;19.83;;;2.80;99.90;;;;;;6153195;23;20774;-84
2023/02/13 11:57:30;;;;;;;37.00;19.70;;;2.40;99.90;;;;;;6159712;23;20449;-89
2023/02/13 11:59:58;;;;;;;33.90;18.40;;;2.50;99.90;;;;;;6166668;23;20396;-90
2023/02/13 12:02:26;;;;;;;35.53;17.87;;;2.70;99.90;;;;;;6162957;23;20439;-91
2023/02/13 12:04:54;;;;;;;33.47;19.17;;;3.20;99.90;;;;;;6171273;23;20423;-89
2023/02/13 12:07:24;;;;;;;33.93;17.60;;;3.60;99.90;;;;;;6177376;23;20393;-82
2023/02/13 12:10:00;;;;;;;26.47;17.10;;;4.00;99.90;;;;;;6170539;23;20433;-92
2023/02/13 12:12:32;;;;;;;32.23;20.00;;;4.20;99.90;;;;;;6170724;23;20447;-86
2023/02/13 12:15:03;;;;;;;30.03;18.13;;;4.30;99.90;;;;;;6174572;23;20397;-88
2023/02/13 12:17:31;;;;;;;32.67;19.43;;;4.40;99.90;;;;;;6167600;23;20445;-91
2023/02/13 12:19:59;;;;;;;32.40;17.97;;;3.40;99.90;;;;;;6154736;23;20440;-89
2023/02/13 12:22:31;;;;;;;31.97;16.80;;;3.20;99.90;;;;;;6156322;23;20412;-92
2023/02/13 12:25:22;;;;;;;36.87;18.47;;;3.70;99.90;;;;;;6171142;23;20397;-91
2023/02/13 12:28:02;;;;;;;35.27;17.73;;;4.20;99.90;;;;;;6161742;23;20409;-91
2023/02/13 12:30:59;;;;;;;30.90;16.43;;;4.50;99.90;;;;;;6171750;23;20411;-92
2023/02/13 12:34:01;;;;;;;32.17;17.50;;;5.00;99.90;;;;;;6164126;23;20389;-85
2023/02/13 12:36:35;;;;;;;41.83;17.70;;;5.20;99.90;;;;;;6174442;23;20491;-85
2023/02/13 12:39:17;;;;;;;28.00;16.50;;;5.50;99.90;;;;;;6174723;23;20425;-85
2023/02/13 12:41:54;;;;;;;26.97;16.17;;;5.70;99.90;;;;;;6165519;23;20382;-89
2023/02/13 12:44:49;;;;;;;34.50;18.43;;;5.30;99.90;;;;;;6158725;23;20799;-77
2023/02/13 12:47:20;;;;;;;31.17;19.90;;;5.30;99.90;;;;;;6159603;23;20392;-78
2023/02/13 12:50:27;;;;;;;40.47;16.67;;;5.40;99.90;;;;;;6154435;23;20453;-78
2023/02/13 12:53:06;;;;;;;36.60;17.03;;;6.00;99.90;;;;;;6148084;23;20440;-78
2023/02/13 12:55:47;;;;;;;26.60;16.17;;;6.20;99.90;;;;;;6177017;23;20389;-80
2023/02/13 12:58:41;;;;;;;27.00;15.50;;;6.30;99.90;;;;;;6170408;23;20703;-80
2023/02/13 13:01:17;;;;;;;35.37;17.90;;;6.20;99.90;;;;;;6162868;23;20477;-81
2023/02/13 13:03:54;;;;;;;26.07;16.50;;;5.50;99.90;;;;;;6162477;23;20393;-80
2023/02/13 13:06:57;;;;;;;23.63;16.10;;;6.20;99.90;;;;;;6156204;23;20496;-79
2023/02/13 13:09:35;;;;;;;27.07;16.87;;;6.30;99.90;;;;;;6161867;23;20468;-79
2023/02/13 13:12:22;;;;;;;28.77;18.00;;;6.60;99.90;;;;;;6161797;23;20472;-79
2023/02/13 13:14:56;;;;;;;27.00;16.97;;;6.40;99.90;;;;;;6160697;23;20435;-80
2023/02/13 13:17:35;;;;;;;28.60;17.07;;;6.40;99.90;;;;;;6159608;23;20710;-79
2023/02/13 13:20:21;;;;;;;27.60;16.03;;;6.40;99.90;;;;;;6159750;23;20385;-77
2023/02/13 13:26:01;;;;;;;26.00;16.40;;;6.60;99.90;;;;;;6163304;23;20467;-74
2023/02/13 13:28:35;;;;;;;27.73;15.60;;;6.50;99.90;;;;;;6183339;23;20398;-74
2023/02/13 13:31:03;;;;;;;41.77;19.43;;;6.30;99.90;;;;;;6181510;23;20392;-73
2023/02/13 13:33:33;;;;;;;35.23;15.67;;;5.90;99.90;;;;;;6180476;23;20404;-72
2023/02/13 13:36:07;;;;;;;28.93;16.23;;;6.00;99.90;;;;;;6180626;23;20947;-73
2023/02/13 13:38:50;;;;;;;22.20;13.73;;;5.90;99.90;;;;;;6180668;23;20410;-73
2023/02/13 13:41:23;;;;;;;28.73;15.90;;;5.80;99.90;;;;;;6183196;23;20745;-73
2023/02/13 13:44:05;;;;;;;27.87;16.67;;;5.80;99.90;;;;;;6181800;23;20724;-74
2023/02/13 13:46:44;;;;;;;29.20;14.07;;;5.40;99.90;;;;;;6182309;23;20384;-74